sensor_id;sensor_type;location;lat;lon;timestamp;pressure;altitude;pressure_sealevel;temperature;humidity
20119;BME280;10220;42.716;23.306;2022-07-23T00:01:28;95514.50;;;23.12;94.33
20119;BME280;10220;42.716;23.306;2022-07-23T00:03:54;95491.44;;;22.45;97.18
20119;BME280;10220;42.716;23.306;2022-07-23T00:06:20;95518.09;;;22.58;97.81
20119;BME280;10220;42.716;23.306;2022-07-23T00:08:46;95465.09;;;22.05;100.00
20119;BME280;10220;42.716;23.306;2022-07-23T00:11:12;95521.84;;;22.13;100.00
20119;BME280;10220;42.716;23.306;2022-07-23T00:13:37;95521.03;;;22.47;100.00
20119;BME280;10220;42.716;23.306;2022-07-23T00:16:03;95516.56;;;22.28;100.00
20119;BME280;10220;42.716;23.306;2022-07-23T00:18:29;95515.25;;;21.95;100.00
20119;BME280;10220;42.716;23.306;2022-07-23T00:20:54;95513.94;;;22.03;100.00
20119;BME280;10220;42.716;23.306;2022-07-23T00:23:23;95520.13;;;22.91;100.00
20119;BME280;10220;42.716;23.306;2022-07-23T00:25:50;95514.63;;;23.36;100.00
20119;BME280;10220;42.716;23.306;2022-07-23T00:28:16;95527.81;;;23.51;96.19
20119;BME280;10220;42.716;23.306;2022-07-23T00:30:42;95522.41;;;23.65;96.32
20119;BME280;10220;42.716;23.306;2022-07-23T00:33:07;95513.41;;;23.66;95.11
20119;BME280;10220;42.716;23.306;2022-07-23T00:35:35;95527.84;;;23.84;95.25
20119;BME280;10220;42.716;23.306;2022-07-23T00:38:04;95468.84;;;23.83;92.27
20119;BME280;10220;42.716;23.306;2022-07-23T00:40:30;95504.63;;;24.09;90.24
20119;BME280;10220;42.716;23.306;2022-07-23T00:42:56;95511.91;;;24.27;89.85
20119;BME280;10220;42.716;23.306;2022-07-23T00:45:21;95503.25;;;24.45;88.25
20119;BME280;10220;42.716;23.306;2022-07-23T00:47:47;95524.19;;;24.13;86.42
20119;BME280;10220;42.716;23.306;2022-07-23T00:50:14;95524.66;;;22.81;97.13
20119;BME280;10220;42.716;23.306;2022-07-23T00:52:40;95526.81;;;22.64;99.76
20119;BME280;10220;42.716;23.306;2022-07-23T00:55:06;95525.50;;;22.56;100.00
20119;BME280;10220;42.716;23.306;2022-07-23T00:57:32;95523.25;;;23.08;100.00
20119;BME280;10220;42.716;23.306;2022-07-23T00:59:58;95528.22;;;23.19;98.69
20119;BME280;10220;42.716;23.306;2022-07-23T01:02:25;95521.66;;;23.55;96.50
20119;BME280;10220;42.716;23.306;2022-07-23T01:04:51;95519.91;;;23.41;94.51
20119;BME280;10220;42.716;23.306;2022-07-23T01:07:16;95505.00;;;23.11;97.30
20119;BME280;10220;42.716;23.306;2022-07-23T01:09:43;95524.09;;;22.79;99.58
20119;BME280;10220;42.716;23.306;2022-07-23T01:12:12;95522.06;;;23.39;97.30
20119;BME280;10220;42.716;23.306;2022-07-23T01:14:38;95484.03;;;23.25;94.77
20119;BME280;10220;42.716;23.306;2022-07-23T01:17:03;95530.78;;;22.66;100.00
20119;BME280;10220;42.716;23.306;2022-07-23T01:19:29;95528.41;;;22.45;100.00
20119;BME280;10220;42.716;23.306;2022-07-23T01:21:56;95526.31;;;22.22;100.00
20119;BME280;10220;42.716;23.306;2022-07-23T01:24:22;95453.66;;;22.49;100.00
20119;BME280;10220;42.716;23.306;2022-07-23T01:26:48;95520.97;;;23.40;98.23
20119;BME280;10220;42.716;23.306;2022-07-23T01:29:14;95518.59;;;22.80;99.99
20119;BME280;10220;42.716;23.306;2022-07-23T01:31:40;95536.88;;;22.17;100.00
20119;BME280;10220;42.716;23.306;2022-07-23T01:34:06;95514.19;;;21.77;100.00
20119;BME280;10220;42.716;23.306;2022-07-23T01:36:33;95509.16;;;22.10;100.00
20119;BME280;10220;42.716;23.306;2022-07-23T01:38:58;95512.63;;;22.30;100.00
20119;BME280;10220;42.716;23.306;2022-07-23T01:41:24;95500.59;;;22.72;100.00
20119;BME280;10220;42.716;23.306;2022-07-23T01:43:49;95510.66;;;22.70;100.00
20119;BME280;10220;42.716;23.306;2022-07-23T01:46:15;95500.84;;;22.81;99.34
20119;BME280;10220;42.716;23.306;2022-07-23T01:48:40;95502.94;;;23.04;96.99
20119;BME280;10220;42.716;23.306;2022-07-23T01:51:06;95502.97;;;22.84;96.35
20119;BME280;10220;42.716;23.306;2022-07-23T01:53:32;95512.75;;;22.78;97.24
20119;BME280;10220;42.716;23.306;2022-07-23T01:55:58;95496.44;;;22.56;98.27
20119;BME280;10220;42.716;23.306;2022-07-23T01:58:24;95504.25;;;22.96;96.54
20119;BME280;10220;42.716;23.306;2022-07-23T02:00:50;95506.06;;;22.96;95.88
20119;BME280;10220;42.716;23.306;2022-07-23T02:03:15;95516.03;;;22.45;97.98
20119;BME280;10220;42.716;23.306;2022-07-23T02:05:40;95479.63;;;21.73;100.00
20119;BME280;10220;42.716;23.306;2022-07-23T02:08:06;95525.81;;;22.05;100.00
20119;BME280;10220;42.716;23.306;2022-07-23T02:10:32;95475.06;;;21.34;100.00
20119;BME280;10220;42.716;23.306;2022-07-23T02:12:57;95528.44;;;22.15;100.00
20119;BME280;10220;42.716;23.306;2022-07-23T02:15:22;95513.94;;;22.43;100.00
20119;BME280;10220;42.716;23.306;2022-07-23T02:17:48;95508.53;;;22.77;98.36
20119;BME280;10220;42.716;23.306;2022-07-23T02:20:14;95514.69;;;22.43;99.40
20119;BME280;10220;42.716;23.306;2022-07-23T02:22:39;95513.66;;;22.04;100.00
20119;BME280;10220;42.716;23.306;2022-07-23T02:25:06;95517.06;;;21.80;100.00
20119;BME280;10220;42.716;23.306;2022-07-23T02:27:33;95513.38;;;21.56;100.00
20119;BME280;10220;42.716;23.306;2022-07-23T02:29:59;95511.25;;;21.53;100.00
20119;BME280;10220;42.716;23.306;2022-07-23T02:32:25;95519.72;;;21.65;100.00
20119;BME280;10220;42.716;23.306;2022-07-23T02:34:50;95517.16;;;21.04;100.00
20119;BME280;10220;42.716;23.306;2022-07-23T02:37:16;95528.25;;;21.11;100.00
20119;BME280;10220;42.716;23.306;2022-07-23T02:39:42;95521.44;;;21.25;100.00
20119;BME280;10220;42.716;23.306;2022-07-23T02:42:07;95537.16;;;20.95;100.00
20119;BME280;10220;42.716;23.306;2022-07-23T02:44:34;95514.41;;;20.74;100.00
20119;BME280;10220;42.716;23.306;2022-07-23T02:46:59;95537.16;;;20.95;100.00
20119;BME280;10220;42.716;23.306;2022-07-23T02:49:25;95543.47;;;20.89;100.00
20119;BME280;10220;42.716;23.306;2022-07-23T02:51:50;95520.50;;;20.39;100.00
20119;BME280;10220;42.716;23.306;2022-07-23T02:54:16;95518.19;;;20.47;100.00
20119;BME280;10220;42.716;23.306;2022-07-23T02:56:41;95545.72;;;21.37;100.00
20119;BME280;10220;42.716;23.306;2022-07-23T02:59:07;95540.81;;;21.60;100.00
20119;BME280;10220;42.716;23.306;2022-07-23T03:01:32;95552.19;;;21.85;100.00
20119;BME280;10220;42.716;23.306;2022-07-23T03:03:57;95551.41;;;22.15;100.00
20119;BME280;10220;42.716;23.306;2022-07-23T03:06:23;95531.63;;;22.32;100.00
20119;BME280;10220;42.716;23.306;2022-07-23T03:08:48;95572.28;;;22.46;100.00
20119;BME280;10220;42.716;23.306;2022-07-23T03:11:14;95547.19;;;22.43;100.00
20119;BME280;10220;42.716;23.306;2022-07-23T03:13:40;95543.22;;;21.96;100.00
20119;BME280;10220;42.716;23.306;2022-07-23T03:16:06;95542.59;;;21.45;100.00
20119;BME280;10220;42.716;23.306;2022-07-23T03:18:32;95558.59;;;21.19;100.00
20119;BME280;10220;42.716;23.306;2022-07-23T03:20:57;95551.25;;;20.33;100.00
20119;BME280;10220;42.716;23.306;2022-07-23T03:23:23;95540.00;;;20.84;100.00
20119;BME280;10220;42.716;23.306;2022-07-23T03:25:48;95567.97;;;21.56;100.00
20119;BME280;10220;42.716;23.306;2022-07-23T03:28:15;95571.69;;;21.60;100.00
20119;BME280;10220;42.716;23.306;2022-07-23T03:30:46;95568.28;;;21.79;100.00
20119;BME280;10220;42.716;23.306;2022-07-23T03:33:16;95567.25;;;21.09;100.00
20119;BME280;10220;42.716;23.306;2022-07-23T03:35:42;95560.34;;;20.93;100.00
20119;BME280;10220;42.716;23.306;2022-07-23T03:38:08;95584.50;;;21.46;100.00
20119;BME280;10220;42.716;23.306;2022-07-23T03:40:33;95571.38;;;20.85;100.00
20119;BME280;10220;42.716;23.306;2022-07-23T03:42:59;95543.56;;;20.27;100.00
20119;BME280;10220;42.716;23.306;2022-07-23T03:45:24;95574.06;;;20.18;100.00
20119;BME280;10220;42.716;23.306;2022-07-23T03:47:50;95564.63;;;20.27;100.00
20119;BME280;10220;42.716;23.306;2022-07-23T03:50:17;95572.56;;;20.32;100.00
20119;BME280;10220;42.716;23.306;2022-07-23T03:52:42;95579.34;;;20.59;100.00
20119;BME280;10220;42.716;23.306;2022-07-23T03:55:08;95569.47;;;20.76;100.00
20119;BME280;10220;42.716;23.306;2022-07-23T03:57:33;95575.25;;;21.29;100.00
20119;BME280;10220;42.716;23.306;2022-07-23T03:59:59;95570.00;;;21.39;100.00
20119;BME280;10220;42.716;23.306;2022-07-23T04:02:24;95576.22;;;21.08;100.00
20119;BME280;10220;42.716;23.306;2022-07-23T04:04:50;95570.34;;;20.91;100.00
20119;BME280;10220;42.716;23.306;2022-07-23T04:07:15;95563.59;;;21.10;100.00
20119;BME280;10220;42.716;23.306;2022-07-23T04:09:42;95560.28;;;21.49;100.00
20119;BME280;10220;42.716;23.306;2022-07-23T04:12:08;95583.84;;;21.76;100.00
20119;BME280;10220;42.716;23.306;2022-07-23T04:14:34;95573.34;;;22.15;100.00
20119;BME280;10220;42.716;23.306;2022-07-23T04:16:59;95573.31;;;21.85;100.00
20119;BME280;10220;42.716;23.306;2022-07-23T04:19:25;95561.63;;;21.57;100.00
20119;BME280;10220;42.716;23.306;2022-07-23T04:21:51;95586.47;;;21.71;100.00
20119;BME280;10220;42.716;23.306;2022-07-23T04:24:17;95593.03;;;21.63;100.00
20119;BME280;10220;42.716;23.306;2022-07-23T04:26:43;95576.19;;;21.03;100.00
20119;BME280;10220;42.716;23.306;2022-07-23T04:29:08;95578.78;;;21.59;100.00
20119;BME280;10220;42.716;23.306;2022-07-23T04:31:34;95599.66;;;21.61;100.00
20119;BME280;10220;42.716;23.306;2022-07-23T04:33:59;95563.78;;;20.99;100.00
20119;BME280;10220;42.716;23.306;2022-07-23T04:36:25;95586.91;;;21.48;100.00
20119;BME280;10220;42.716;23.306;2022-07-23T04:38:50;95585.13;;;21.53;100.00
20119;BME280;10220;42.716;23.306;2022-07-23T04:41:15;95580.38;;;21.65;100.00
20119;BME280;10220;42.716;23.306;2022-07-23T04:43:41;95592.34;;;21.22;100.00
20119;BME280;10220;42.716;23.306;2022-07-23T04:46:06;95599.38;;;21.72;100.00
20119;BME280;10220;42.716;23.306;2022-07-23T04:48:32;95566.16;;;21.66;100.00
20119;BME280;10220;42.716;23.306;2022-07-23T04:50:57;95589.09;;;21.71;100.00
20119;BME280;10220;42.716;23.306;2022-07-23T04:53:23;95589.50;;;21.38;100.00
20119;BME280;10220;42.716;23.306;2022-07-23T04:55:48;95561.47;;;22.28;100.00
20119;BME280;10220;42.716;23.306;2022-07-23T04:58:14;95588.09;;;22.16;100.00
20119;BME280;10220;42.716;23.306;2022-07-23T05:00:39;95573.59;;;22.43;100.00
20119;BME280;10220;42.716;23.306;2022-07-23T05:03:05;95595.78;;;23.55;97.81
20119;BME280;10220;42.716;23.306;2022-07-23T05:05:30;95584.72;;;24.29;93.47
20119;BME280;10220;42.716;23.306;2022-07-23T05:07:55;95598.09;;;24.15;91.14
20119;BME280;10220;42.716;23.306;2022-07-23T05:10:21;95592.09;;;23.99;94.00
20119;BME280;10220;42.716;23.306;2022-07-23T05:12:46;95588.22;;;24.25;92.79
20119;BME280;10220;42.716;23.306;2022-07-23T05:15:12;95598.19;;;24.71;89.46
20119;BME280;10220;42.716;23.306;2022-07-23T05:17:37;95598.88;;;24.82;87.73
20119;BME280;10220;42.716;23.306;2022-07-23T05:20:03;95583.16;;;25.78;82.40
20119;BME280;10220;42.716;23.306;2022-07-23T05:22:29;95601.19;;;26.18;76.55
20119;BME280;10220;42.716;23.306;2022-07-23T05:24:54;95594.84;;;26.51;74.25
20119;BME280;10220;42.716;23.306;2022-07-23T05:27:20;95585.53;;;25.98;74.80
20119;BME280;10220;42.716;23.306;2022-07-23T05:29:45;95562.28;;;25.90;79.20
20119;BME280;10220;42.716;23.306;2022-07-23T05:32:11;95576.00;;;25.55;79.99
20119;BME280;10220;42.716;23.306;2022-07-23T05:34:36;95581.63;;;26.46;74.91
20119;BME280;10220;42.716;23.306;2022-07-23T05:37:01;95595.28;;;25.66;78.81
20119;BME280;10220;42.716;23.306;2022-07-23T05:39:27;95600.03;;;26.05;79.32
20119;BME280;10220;42.716;23.306;2022-07-23T05:41:52;95586.91;;;26.64;74.29
20119;BME280;10220;42.716;23.306;2022-07-23T05:44:18;95555.56;;;26.48;73.06
20119;BME280;10220;42.716;23.306;2022-07-23T05:46:43;95559.00;;;26.48;72.64
20119;BME280;10220;42.716;23.306;2022-07-23T05:49:08;95588.88;;;25.67;80.88
20119;BME280;10220;42.716;23.306;2022-07-23T05:51:34;95605.44;;;26.01;78.75
20119;BME280;10220;42.716;23.306;2022-07-23T05:53:59;95586.34;;;26.80;74.27
20119;BME280;10220;42.716;23.306;2022-07-23T05:56:25;95599.16;;;27.64;68.51
20119;BME280;10220;42.716;23.306;2022-07-23T05:58:50;95594.63;;;28.35;60.28
20119;BME280;10220;42.716;23.306;2022-07-23T06:01:16;95596.38;;;27.15;66.29
20119;BME280;10220;42.716;23.306;2022-07-23T06:03:41;95586.91;;;27.23;69.33
20119;BME280;10220;42.716;23.306;2022-07-23T06:06:06;95552.22;;;27.89;63.93
20119;BME280;10220;42.716;23.306;2022-07-23T06:08:32;95580.44;;;28.69;60.49
20119;BME280;10220;42.716;23.306;2022-07-23T06:10:57;95575.41;;;28.90;57.71
20119;BME280;10220;42.716;23.306;2022-07-23T06:13:23;95583.03;;;28.83;58.65
20119;BME280;10220;42.716;23.306;2022-07-23T06:15:48;95544.41;;;27.31;64.48
20119;BME280;10220;42.716;23.306;2022-07-23T06:18:14;95578.28;;;28.28;62.02
20119;BME280;10220;42.716;23.306;2022-07-23T06:20:39;95583.13;;;28.47;60.69
20119;BME280;10220;42.716;23.306;2022-07-23T06:23:05;95575.00;;;28.52;58.89
20119;BME280;10220;42.716;23.306;2022-07-23T06:25:30;95584.63;;;28.62;59.97
20119;BME280;10220;42.716;23.306;2022-07-23T06:27:56;95590.72;;;28.32;61.77
20119;BME280;10220;42.716;23.306;2022-07-23T06:30:21;95497.28;;;28.02;60.41
20119;BME280;10220;42.716;23.306;2022-07-23T06:32:47;95565.38;;;28.43;60.92
20119;BME280;10220;42.716;23.306;2022-07-23T06:35:13;95572.88;;;28.19;60.24
20119;BME280;10220;42.716;23.306;2022-07-23T06:37:39;95566.38;;;27.50;64.52
20119;BME280;10220;42.716;23.306;2022-07-23T06:40:05;95576.75;;;26.98;70.07
20119;BME280;10220;42.716;23.306;2022-07-23T06:42:30;95523.44;;;26.44;73.76
20119;BME280;10220;42.716;23.306;2022-07-23T06:44:56;95558.47;;;26.91;72.20
20119;BME280;10220;42.716;23.306;2022-07-23T06:47:21;95565.16;;;26.44;73.00
20119;BME280;10220;42.716;23.306;2022-07-23T06:49:47;95565.25;;;26.84;69.99
20119;BME280;10220;42.716;23.306;2022-07-23T06:52:13;95570.78;;;26.87;69.14
20119;BME280;10220;42.716;23.306;2022-07-23T06:54:38;95549.50;;;26.74;72.52
20119;BME280;10220;42.716;23.306;2022-07-23T06:57:04;95550.34;;;26.24;76.76
20119;BME280;10220;42.716;23.306;2022-07-23T06:59:29;95576.78;;;26.79;72.87
20119;BME280;10220;42.716;23.306;2022-07-23T07:01:54;95573.94;;;26.44;75.55
20119;BME280;10220;42.716;23.306;2022-07-23T07:04:20;95567.72;;;26.80;72.20
20119;BME280;10220;42.716;23.306;2022-07-23T07:06:45;95572.22;;;27.12;68.65
20119;BME280;10220;42.716;23.306;2022-07-23T07:09:11;95569.13;;;27.45;67.37
20119;BME280;10220;42.716;23.306;2022-07-23T07:11:36;95557.81;;;27.66;64.19
20119;BME280;10220;42.716;23.306;2022-07-23T07:14:02;95552.03;;;28.21;59.45
20119;BME280;10220;42.716;23.306;2022-07-23T07:16:27;95513.25;;;28.15;59.36
20119;BME280;10220;42.716;23.306;2022-07-23T07:18:53;95557.09;;;28.75;58.04
20119;BME280;10220;42.716;23.306;2022-07-23T07:21:18;95551.31;;;28.81;59.44
20119;BME280;10220;42.716;23.306;2022-07-23T07:23:43;95521.00;;;28.55;59.85
20119;BME280;10220;42.716;23.306;2022-07-23T07:26:09;95511.50;;;28.63;58.36
20119;BME280;10220;42.716;23.306;2022-07-23T07:28:34;95560.53;;;28.97;58.26
20119;BME280;10220;42.716;23.306;2022-07-23T07:31:00;95539.16;;;28.97;58.06
20119;BME280;10220;42.716;23.306;2022-07-23T07:33:25;95554.91;;;29.46;54.45
20119;BME280;10220;42.716;23.306;2022-07-23T07:35:51;95551.81;;;28.61;58.57
20119;BME280;10220;42.716;23.306;2022-07-23T07:38:16;95533.09;;;29.13;59.54
20119;BME280;10220;42.716;23.306;2022-07-23T07:40:42;95539.75;;;28.94;57.07
20119;BME280;10220;42.716;23.306;2022-07-23T07:43:07;95519.59;;;29.74;53.36
20119;BME280;10220;42.716;23.306;2022-07-23T07:45:33;95542.22;;;29.68;54.63
20119;BME280;10220;42.716;23.306;2022-07-23T07:47:58;95533.94;;;29.95;52.69
20119;BME280;10220;42.716;23.306;2022-07-23T07:50:24;95544.75;;;30.32;50.14
20119;BME280;10220;42.716;23.306;2022-07-23T07:52:50;95536.22;;;30.72;48.89
20119;BME280;10220;42.716;23.306;2022-07-23T07:55:15;95541.16;;;30.28;48.20
20119;BME280;10220;42.716;23.306;2022-07-23T07:57:41;95543.31;;;29.84;50.16
20119;BME280;10220;42.716;23.306;2022-07-23T08:00:08;95532.03;;;30.21;48.92
20119;BME280;10220;42.716;23.306;2022-07-23T08:02:44;95520.56;;;30.45;48.57
20119;BME280;10220;42.716;23.306;2022-07-23T08:05:11;95513.63;;;30.19;49.05
20119;BME280;10220;42.716;23.306;2022-07-23T08:07:37;95539.91;;;30.51;48.50
20119;BME280;10220;42.716;23.306;2022-07-23T08:10:05;95519.59;;;30.16;51.44
20119;BME280;10220;42.716;23.306;2022-07-23T08:12:51;95532.34;;;30.19;53.82
20119;BME280;10220;42.716;23.306;2022-07-23T08:15:18;95506.38;;;30.28;49.38
20119;BME280;10220;42.716;23.306;2022-07-23T08:17:45;95520.56;;;30.45;50.95
20119;BME280;10220;42.716;23.306;2022-07-23T08:20:12;95521.97;;;30.43;50.55
20119;BME280;10220;42.716;23.306;2022-07-23T08:22:46;95519.53;;;30.67;51.74
20119;BME280;10220;42.716;23.306;2022-07-23T08:25:13;95519.88;;;31.40;47.54
20119;BME280;10220;42.716;23.306;2022-07-23T08:27:38;95513.81;;;31.80;46.55
20119;BME280;10220;42.716;23.306;2022-07-23T08:30:04;95519.44;;;31.00;48.00
20119;BME280;10220;42.716;23.306;2022-07-23T08:32:30;95521.41;;;31.20;48.59
20119;BME280;10220;42.716;23.306;2022-07-23T08:34:55;95512.00;;;31.14;47.52
20119;BME280;10220;42.716;23.306;2022-07-23T08:37:21;95467.31;;;30.61;46.32
20119;BME280;10220;42.716;23.306;2022-07-23T08:39:46;95518.38;;;30.85;48.88
20119;BME280;10220;42.716;23.306;2022-07-23T08:42:13;95505.06;;;31.42;46.78
20119;BME280;10220;42.716;23.306;2022-07-23T08:44:42;95485.94;;;31.72;45.76
20119;BME280;10220;42.716;23.306;2022-07-23T08:47:10;95509.56;;;31.30;47.94
20119;BME280;10220;42.716;23.306;2022-07-23T08:49:36;95509.94;;;31.49;47.96
20119;BME280;10220;42.716;23.306;2022-07-23T08:52:02;95502.69;;;31.90;45.84
20119;BME280;10220;42.716;23.306;2022-07-23T08:54:27;95502.88;;;31.64;45.91
20119;BME280;10220;42.716;23.306;2022-07-23T08:56:53;95504.19;;;31.58;44.32
20119;BME280;10220;42.716;23.306;2022-07-23T08:59:18;95459.53;;;31.62;44.92
20119;BME280;10220;42.716;23.306;2022-07-23T09:01:44;95492.47;;;32.24;45.76
20119;BME280;10220;42.716;23.306;2022-07-23T09:04:09;95495.84;;;32.21;43.89
20119;BME280;10220;42.716;23.306;2022-07-23T09:06:38;95490.91;;;32.55;42.53
20119;BME280;10220;42.716;23.306;2022-07-23T09:09:17;95479.25;;;31.58;43.23
20119;BME280;10220;42.716;23.306;2022-07-23T09:11:46;95483.06;;;31.77;43.19
20119;BME280;10220;42.716;23.306;2022-07-23T09:14:12;95487.97;;;31.96;42.89
20119;BME280;10220;42.716;23.306;2022-07-23T09:16:37;95497.03;;;32.12;43.45
20119;BME280;10220;42.716;23.306;2022-07-23T09:19:05;95493.97;;;31.72;45.61
20119;BME280;10220;42.716;23.306;2022-07-23T09:21:38;95480.75;;;32.28;43.91
20119;BME280;10220;42.716;23.306;2022-07-23T09:24:05;95477.22;;;32.36;41.90
20119;BME280;10220;42.716;23.306;2022-07-23T09:26:43;95490.38;;;32.62;43.25
20119;BME280;10220;42.716;23.306;2022-07-23T09:36:42;95469.97;;;33.05;41.08
20119;BME280;10220;42.716;23.306;2022-07-23T09:39:09;95464.63;;;33.17;40.93
20119;BME280;10220;42.716;23.306;2022-07-23T09:41:40;95466.03;;;33.50;40.03
20119;BME280;10220;42.716;23.306;2022-07-23T09:44:12;95468.47;;;33.67;38.97
20119;BME280;10220;42.716;23.306;2022-07-23T09:46:39;95453.94;;;33.44;38.03
20119;BME280;10220;42.716;23.306;2022-07-23T09:49:21;95462.66;;;33.65;37.89
20119;BME280;10220;42.716;23.306;2022-07-23T09:51:58;95465.00;;;33.42;35.98
20119;BME280;10220;42.716;23.306;2022-07-23T09:54:34;95454.25;;;33.42;37.65
20119;BME280;10220;42.716;23.306;2022-07-23T09:57:03;95451.66;;;33.97;37.21
20119;BME280;10220;42.716;23.306;2022-07-23T09:59:32;95456.56;;;34.61;35.21
20119;BME280;10220;42.716;23.306;2022-07-23T10:02:00;95438.34;;;34.43;35.34
20119;BME280;10220;42.716;23.306;2022-07-23T10:04:28;95437.72;;;34.34;35.91
20119;BME280;10220;42.716;23.306;2022-07-23T10:06:57;95447.78;;;34.64;35.22
20119;BME280;10220;42.716;23.306;2022-07-23T10:09:31;95433.91;;;34.93;35.58
20119;BME280;10220;42.716;23.306;2022-07-23T10:11:59;95439.94;;;35.36;34.96
20119;BME280;10220;42.716;23.306;2022-07-23T10:14:31;95443.28;;;35.15;34.88
20119;BME280;10220;42.716;23.306;2022-07-23T10:16:58;95416.16;;;34.92;34.69
20119;BME280;10220;42.716;23.306;2022-07-23T10:19:24;95421.38;;;35.01;34.95
20119;BME280;10220;42.716;23.306;2022-07-23T10:21:53;95421.19;;;35.24;34.82
20119;BME280;10220;42.716;23.306;2022-07-23T10:25:21;95419.13;;;35.71;33.86
20119;BME280;10220;42.716;23.306;2022-07-23T10:36:20;95407.91;;;35.69;32.42
20119;BME280;10220;42.716;23.306;2022-07-23T10:38:58;95413.88;;;35.78;31.38
20119;BME280;10220;42.716;23.306;2022-07-23T10:41:37;95409.44;;;36.04;30.68
20119;BME280;10220;42.716;23.306;2022-07-23T10:44:14;95418.47;;;35.77;30.55
20119;BME280;10220;42.716;23.306;2022-07-23T10:46:57;95405.50;;;36.02;30.31
20119;BME280;10220;42.716;23.306;2022-07-23T10:49:41;95400.59;;;36.07;31.52
20119;BME280;10220;42.716;23.306;2022-07-23T10:54:56;95390.72;;;36.56;29.09
20119;BME280;10220;42.716;23.306;2022-07-23T10:57:27;95391.81;;;36.96;27.97
20119;BME280;10220;42.716;23.306;2022-07-23T11:02:42;95387.53;;;36.73;27.32
20119;BME280;10220;42.716;23.306;2022-07-23T11:05:10;95380.84;;;36.89;27.79
20119;BME280;10220;42.716;23.306;2022-07-23T11:08:18;95371.31;;;37.21;27.45
20119;BME280;10220;42.716;23.306;2022-07-23T11:10:54;95376.25;;;37.15;28.21
20119;BME280;10220;42.716;23.306;2022-07-23T11:13:35;95366.00;;;37.28;27.15
20119;BME280;10220;42.716;23.306;2022-07-23T11:32:00;95344.97;;;38.49;24.24
20119;BME280;10220;42.716;23.306;2022-07-23T11:37:04;95341.31;;;37.62;26.23
20119;BME280;10220;42.716;23.306;2022-07-23T11:39:32;95342.06;;;37.30;27.08
20119;BME280;10220;42.716;23.306;2022-07-23T11:41:59;95311.88;;;37.02;27.04
20119;BME280;10220;42.716;23.306;2022-07-23T11:44:32;95341.09;;;37.19;27.13
20119;BME280;10220;42.716;23.306;2022-07-23T11:47:07;95332.84;;;36.83;26.89
20119;BME280;10220;42.716;23.306;2022-07-23T11:49:33;95332.19;;;36.89;26.39
20119;BME280;10220;42.716;23.306;2022-07-23T11:52:14;95332.56;;;36.65;26.30
20119;BME280;10220;42.716;23.306;2022-07-23T11:54:49;95324.00;;;36.60;26.62
20119;BME280;10220;42.716;23.306;2022-07-23T11:57:15;95304.91;;;36.49;25.80
20119;BME280;10220;42.716;23.306;2022-07-23T11:59:42;95318.59;;;36.60;26.15
20119;BME280;10220;42.716;23.306;2022-07-23T12:02:07;95328.22;;;36.35;27.13
20119;BME280;10220;42.716;23.306;2022-07-23T12:04:50;95329.03;;;36.17;27.13
20119;BME280;10220;42.716;23.306;2022-07-23T12:07:31;95321.22;;;36.56;25.83
20119;BME280;10220;42.716;23.306;2022-07-23T12:09:59;95324.84;;;36.41;27.32
20119;BME280;10220;42.716;23.306;2022-07-23T12:12:25;95309.84;;;36.44;26.99
20119;BME280;10220;42.716;23.306;2022-07-23T12:14:56;95313.59;;;36.39;27.06
20119;BME280;10220;42.716;23.306;2022-07-23T12:17:28;95314.72;;;36.35;26.14
20119;BME280;10220;42.716;23.306;2022-07-23T12:19:56;95310.25;;;36.46;26.50
20119;BME280;10220;42.716;23.306;2022-07-23T12:22:24;95312.19;;;36.71;25.95
20119;BME280;10220;42.716;23.306;2022-07-23T12:25:04;95287.84;;;36.45;25.91
20119;BME280;10220;42.716;23.306;2022-07-23T12:27:30;95309.28;;;36.13;24.21
20119;BME280;10220;42.716;23.306;2022-07-23T12:29:56;95273.50;;;35.97;23.87
20119;BME280;10220;42.716;23.306;2022-07-23T12:32:27;95300.63;;;36.26;24.15
20119;BME280;10220;42.716;23.306;2022-07-23T12:35:06;95287.00;;;35.97;24.56
20119;BME280;10220;42.716;23.306;2022-07-23T12:37:37;95304.94;;;36.08;23.97
20119;BME280;10220;42.716;23.306;2022-07-23T12:40:23;95291.31;;;36.01;23.91
20119;BME280;10220;42.716;23.306;2022-07-23T12:42:53;95299.06;;;36.25;24.64
20119;BME280;10220;42.716;23.306;2022-07-23T12:45:19;95292.88;;;36.25;24.91
20119;BME280;10220;42.716;23.306;2022-07-23T12:47:56;95291.69;;;36.22;23.45
20119;BME280;10220;42.716;23.306;2022-07-23T12:50:40;95280.28;;;36.10;24.74
20119;BME280;10220;42.716;23.306;2022-07-23T12:53:08;95273.84;;;35.95;25.28
20119;BME280;10220;42.716;23.306;2022-07-23T12:55:35;95284.94;;;35.90;23.26
20119;BME280;10220;42.716;23.306;2022-07-23T12:58:16;95278.22;;;36.03;23.40
20119;BME280;10220;42.716;23.306;2022-07-23T13:03:38;95268.22;;;36.04;25.11
20119;BME280;10220;42.716;23.306;2022-07-23T13:06:06;95280.28;;;36.10;26.01
20119;BME280;10220;42.716;23.306;2022-07-23T13:08:33;95272.06;;;36.03;25.00
20119;BME280;10220;42.716;23.306;2022-07-23T13:10:59;95270.19;;;36.07;24.92
20119;BME280;10220;42.716;23.306;2022-07-23T13:13:27;95265.97;;;35.87;23.76
20119;BME280;10220;42.716;23.306;2022-07-23T13:15:54;95272.72;;;35.77;23.19
20119;BME280;10220;42.716;23.306;2022-07-23T13:18:20;95265.28;;;35.71;23.80
20119;BME280;10220;42.716;23.306;2022-07-23T13:20:47;95248.38;;;35.74;24.55
20119;BME280;10220;42.716;23.306;2022-07-23T13:23:13;95227.16;;;35.73;23.55
20119;BME280;10220;42.716;23.306;2022-07-23T13:25:40;95256.75;;;35.88;24.39
20119;BME280;10220;42.716;23.306;2022-07-23T13:28:05;95270.81;;;35.78;23.86
20119;BME280;10220;42.716;23.306;2022-07-23T13:30:31;95249.81;;;35.68;24.14
20119;BME280;10220;42.716;23.306;2022-07-23T13:32:57;95250.59;;;35.69;24.18